Maberry, Arkansas
Current Conditions -  °F | °C
As of 9:56 AM on Saturday 25 Oct 2014 (Local Time) from KSRC Reporting Station
Clear Clear  
Wind Chill: 66°   Ceiling: Unl
Heat Index: 66°   Visibility: 10mi
Dew Point: 60°   Wind: 3mph
Humidity: 81%   Direction: 200°SSW
Pressure: 30.12"   Gusts: NA
Location:  35.03°N, 91.2263°W
Report Text: KSRC 251456Z AUTO 20003KT 10SM CLR 19/16 A3012 RMK AO2 SLP204 T01890156 51003 TSNO
Loading
Personal Weather Stations






























Interactive Weather Map
Tropical Storm Tracking
New forecast layout! Learn more

10-Day Weather Forecast

Advertisements
Track Severe Weather on mobile